Impacts TAF Board
For situational awareness. Not to be used for flight planning purposes.
IDs:

KLGA - New York/La Guardia, NY, US

Issued at 0803 UTC 23 Jan 2019
Updated at 0901 UTC 23 Jan 2019
Potential Impact None Slight Moderate High
Time<<23/21Z 23/22Z 23/23Z 24/00Z 24/01Z 24/02Z 24/03Z 24/04Z 24/05Z 24/06Z 24/07Z 24/08Z 24/09Z>>
Type PRVL PRVL PRVL PRVL PRVL PRVL PRVL PRVL PRVL PRVL PRVL PRVL PRVL
VIS >6 >6 >6 >6 >6 >6 5 5 5 5 5 5 2
CIG 25 25 25 25 25 25 15 15 15 15 15 15 7
Cover OVC OVC OVC BKN BKN BKN BKN BKN BKN BKN BKN BKN OVC
FltCat MVFR MVFR MVFR MVFR MVFR MVFR MVFR MVFR MVFR MVFR MVFR MVFR IFR
WX VCSH VCSH VCSH VCSH VCSH VCSH -RA BR -RA BR -RA BR -RA BR -RA BR -RA BR RA BR
WDir 200 200 200 190 190 190 190 190 190 190 190 190 170
WSpd 10 10 10 14 14 14 12 12 12 12 12 12 17
WGst -- -- -- -- -- -- -- -- -- -- -- -- --
Raw TAF
KLGA 230803Z 2308/2412 21011KT P6SM SCT100 BKN250
  FM231300 20010KT P6SM SCT040 BKN150
  FM231600 22012KT P6SM SCT025 BKN050
  FM232100 20010KT P6SM VCSH BKN025 OVC040 WS020/21045KT
  FM240000 19014KT P6SM VCSH SCT015 BKN025 WS020/21045KT
  FM240300 19012KT 5SM -RA BR SCT007 BKN015 WS020/21050KT
  FM240900 17017KT 2SM RA BR OVC007 WS020/20055KT


METAR Board
Radar Display
Forecast Discussion
For situational awareness. Not to be used for flight planning purposes.